KTBR/TBR METAR and TAF weather

Enter ICAO airport designator
Station Type Date Time Source
KTBR METAR 2022/12/02 23:35 UTC NOAA

KTBR 022335Z AUTO 00000KT 10SM CLR 13/10 A3039 RMK AO2 T01250103


Station Type Date Time Source
KTBR Decoded METAR 2022/12/02 23:35 UTC NOAA

Statesboro, Statesboro-Bulloch County Airport, GA, United States (KTBR) 32-28-59N 081-44-14W
Dec 02, 2022 - 06:35 PM EST / 2022.12.02 2335 UTC
Wind: Calm:0
Visibility: 10 mile(s):0
Sky conditions: clear
Temperature: 54.5 F (12.5 C)
Dew Point: 50.5 F (10.3 C)
Relative Humidity: 86%
Pressure (altimeter): 30.39 in. Hg (1029 hPa)
ob: KTBR 022335Z AUTO 00000KT 10SM CLR 13/10 A3039 RMK AO2 T01250103
cycle: 23

Station Type Date Time Source
KTBR TAF UTC NOAA

Error!

Example: see airport list